createdAt,value
2019-05-23T00:00:59.040Z,13.50
2019-05-23T00:03:30.886Z,12.00
2019-05-23T00:06:02.307Z,15.13
2019-05-23T00:08:32.321Z,13.57
2019-05-23T00:11:21.886Z,16.30
2019-05-23T00:13:54.650Z,12.87
2019-05-23T00:16:24.395Z,13.63
2019-05-23T00:18:56.287Z,12.83
2019-05-23T00:21:26.216Z,13.03
2019-05-23T00:23:58.273Z,12.30
2019-05-23T00:26:29.477Z,13.67
2019-05-23T00:29:09.446Z,15.17
2019-05-23T00:31:50.150Z,15.20
2019-05-23T00:34:21.521Z,12.83
2019-05-23T00:36:52.167Z,14.00
2019-05-23T00:39:23.887Z,14.83
2019-05-23T00:41:54.553Z,13.50
2019-05-23T00:44:24.874Z,13.80
2019-05-23T00:46:54.743Z,14.93
2019-05-23T00:49:25.069Z,15.40
2019-05-23T00:51:54.627Z,13.90
2019-05-23T00:54:24.966Z,17.50
2019-05-23T00:56:54.879Z,14.43
2019-05-23T00:59:27.546Z,13.47
2019-05-23T01:01:57.642Z,14.43
2019-05-23T01:04:28.324Z,13.17
2019-05-23T01:06:58.266Z,14.97
2019-05-23T01:09:28.663Z,14.27
2019-05-23T01:11:58.497Z,12.43
2019-05-23T01:14:28.845Z,19.27
2019-05-23T01:16:59.145Z,15.57
2019-05-23T01:19:29.091Z,12.23
2019-05-23T01:22:00.519Z,13.53
2019-05-23T01:24:36.313Z,13.07
2019-05-23T01:27:07.297Z,14.87
2019-05-23T01:29:49.569Z,13.13
2019-05-23T01:32:26.489Z,13.97
2019-05-23T01:34:56.889Z,13.77
2019-05-23T01:37:26.634Z,15.47
2019-05-23T01:39:56.694Z,13.70
2019-05-23T01:42:28.389Z,14.57
2019-05-23T01:44:59.446Z,14.33
2019-05-23T01:47:29.359Z,13.33
2019-05-23T01:50:00.038Z,13.47
2019-05-23T01:52:30.359Z,14.50
2019-05-23T01:55:01.045Z,15.20
2019-05-23T01:57:31.825Z,15.33
2019-05-23T02:00:09.732Z,16.10
2019-05-23T02:02:36.093Z,15.33
2019-05-23T02:05:08.793Z,14.47
2019-05-23T02:07:38.593Z,15.50
2019-05-23T02:10:12.625Z,12.93
2019-05-23T02:12:43.001Z,15.80
2019-05-23T02:15:14.152Z,15.47
2019-05-23T02:17:43.785Z,14.30
2019-05-23T02:20:16.461Z,16.17
2019-05-23T02:22:47.014Z,13.53
2019-05-23T02:25:17.629Z,13.80
2019-05-23T02:27:48.545Z,14.97
2019-05-23T02:30:33.815Z,16.60
2019-05-23T02:32:54.322Z,13.30
2019-05-23T02:35:24.554Z,15.10
2019-05-23T02:38:04.640Z,14.30
2019-05-23T02:40:35.982Z,15.30
2019-05-23T02:43:13.145Z,17.20
2019-05-23T02:45:49.489Z,15.50
2019-05-23T02:48:36.047Z,14.97
2019-05-23T02:51:26.460Z,14.47
2019-05-23T02:53:56.830Z,18.00
2019-05-23T02:56:28.811Z,14.63
2019-05-23T02:59:35.513Z,14.50
2019-05-23T03:02:54.992Z,14.63
2019-05-23T03:05:26.181Z,16.00
2019-05-23T03:07:58.507Z,15.57
2019-05-23T03:10:32.995Z,16.50
2019-05-23T03:13:05.372Z,15.43
2019-05-23T03:15:37.097Z,18.07
2019-05-23T03:18:08.781Z,14.40
2019-05-23T03:20:38.467Z,15.13
2019-05-23T03:23:16.118Z,12.70
2019-05-23T03:25:57.699Z,15.13
2019-05-23T03:28:30.769Z,13.87
2019-05-23T03:31:26.885Z,13.33
2019-05-23T03:33:38.350Z,14.73
2019-05-23T03:36:08.411Z,14.03
2019-05-23T03:38:38.141Z,15.43
2019-05-23T03:41:08.524Z,15.10
2019-05-23T03:43:39.417Z,17.07
2019-05-23T03:46:13.418Z,14.47
2019-05-23T03:48:43.337Z,16.67
2019-05-23T03:51:13.662Z,15.70
2019-05-23T03:53:45.535Z,15.37
2019-05-23T03:56:15.165Z,16.43
2019-05-23T03:58:45.164Z,15.03
2019-05-23T04:01:19.233Z,19.00
2019-05-23T04:03:50.720Z,16.60
2019-05-23T04:06:21.390Z,23.87
2019-05-23T04:08:51.545Z,15.20
2019-05-23T04:11:22.698Z,16.17
2019-05-23T04:13:53.028Z,15.93
2019-05-23T04:16:22.886Z,15.43
2019-05-23T04:18:52.553Z,16.77
2019-05-23T04:21:26.749Z,16.77
2019-05-23T04:23:57.119Z,18.57
2019-05-23T04:26:26.917Z,17.30
2019-05-23T04:28:57.493Z,17.17
2019-05-23T04:31:28.460Z,17.80
2019-05-23T04:33:58.382Z,17.10
2019-05-23T04:36:27.998Z,16.93
2019-05-23T04:38:57.748Z,19.07
2019-05-23T04:41:27.689Z,16.93
2019-05-23T04:44:00.553Z,18.07
2019-05-23T04:46:31.253Z,18.00
2019-05-23T04:49:00.876Z,19.47
2019-05-23T04:51:31.000Z,18.20
2019-05-23T04:54:02.002Z,16.93
2019-05-23T04:56:32.044Z,17.80
2019-05-23T04:59:04.381Z,17.97
2019-05-23T05:01:34.339Z,19.97
2019-05-23T05:04:06.227Z,17.93
2019-05-23T05:06:35.923Z,15.73
2019-05-23T05:09:08.960Z,19.43
2019-05-23T05:11:39.063Z,19.33
2019-05-23T05:14:08.906Z,16.40
2019-05-23T05:16:38.629Z,17.23
2019-05-23T05:19:09.157Z,16.27
2019-05-23T05:21:38.917Z,15.50
2019-05-23T05:24:08.720Z,16.30
2019-05-23T05:26:40.451Z,17.70
2019-05-23T05:29:10.524Z,16.73
2019-05-23T05:31:40.132Z,16.93
2019-05-23T05:34:10.538Z,19.30
2019-05-23T05:36:41.054Z,19.43
2019-05-23T05:39:12.513Z,17.13
2019-05-23T05:41:42.779Z,18.50
2019-05-23T05:44:13.289Z,19.90
2019-05-23T05:46:43.385Z,18.90
2019-05-23T05:49:13.844Z,19.43
2019-05-23T05:51:43.780Z,18.03
2019-05-23T05:54:13.646Z,18.70
2019-05-23T05:56:43.327Z,18.93
2019-05-23T05:59:13.231Z,18.93
2019-05-23T06:01:43.431Z,19.73
2019-05-23T06:04:13.263Z,20.63
2019-05-23T06:06:44.561Z,19.67
2019-05-23T06:09:15.926Z,19.60
2019-05-23T06:11:45.922Z,19.73
2019-05-23T06:14:16.284Z,20.80
2019-05-23T06:16:46.325Z,19.77
2019-05-23T06:19:15.997Z,22.43
2019-05-23T06:21:46.825Z,21.40
2019-05-23T06:24:16.760Z,19.33
2019-05-23T06:26:46.806Z,20.90
2019-05-23T06:29:16.510Z,19.47
2019-05-23T06:31:46.290Z,21.00
2019-05-23T06:34:16.364Z,20.33
2019-05-23T06:36:46.702Z,18.97
2019-05-23T06:39:17.491Z,20.00
2019-05-23T06:41:47.401Z,20.47
2019-05-23T06:44:18.560Z,19.53
2019-05-23T06:46:48.717Z,21.67
2019-05-23T06:49:18.288Z,22.23
2019-05-23T06:51:48.017Z,20.37
2019-05-23T06:54:18.197Z,20.80
2019-05-23T06:56:47.837Z,22.87
2019-05-23T06:59:20.318Z,20.77
2019-05-23T07:01:50.421Z,22.20
2019-05-23T07:04:20.520Z,23.90
2019-05-23T07:06:50.155Z,23.50
2019-05-23T07:09:20.435Z,22.23
2019-05-23T07:11:52.602Z,23.47
2019-05-23T07:14:22.362Z,24.53
2019-05-23T07:16:51.967Z,25.23
2019-05-23T07:19:21.971Z,23.33
2019-05-23T07:21:51.539Z,24.93
2019-05-23T07:24:21.489Z,25.20
2019-05-23T07:26:51.349Z,24.00
2019-05-23T07:29:20.969Z,25.43
2019-05-23T07:31:52.401Z,24.00
2019-05-23T07:34:22.289Z,25.50
2019-05-23T07:36:51.907Z,24.30
2019-05-23T07:39:21.694Z,24.83
2019-05-23T07:41:51.524Z,25.70
2019-05-23T07:44:21.443Z,23.23
2019-05-23T07:46:51.878Z,24.17
2019-05-23T07:49:21.491Z,24.37
2019-05-23T07:51:51.575Z,21.70
2019-05-23T07:54:25.695Z,24.57
2019-05-23T07:56:55.529Z,25.30
2019-05-23T07:59:25.736Z,24.53
2019-05-23T08:02:10.386Z,21.00
2019-05-23T08:04:40.697Z,22.33
2019-05-23T08:07:11.389Z,20.13
2019-05-23T08:09:40.999Z,19.67
2019-05-23T08:12:10.638Z,18.87
2019-05-23T08:14:40.452Z,17.27
2019-05-23T08:17:13.189Z,15.97
2019-05-23T08:19:49.552Z,11.70
2019-05-23T08:22:14.194Z,8.43
2019-05-23T08:24:44.754Z,11.53
2019-05-23T08:27:14.809Z,7.37
2019-05-23T08:29:45.635Z,11.03
2019-05-23T08:32:15.712Z,13.37
2019-05-23T08:34:45.707Z,11.10
2019-05-23T08:37:15.253Z,9.60
2019-05-23T08:39:45.354Z,9.93
2019-05-23T08:42:15.398Z,8.43
2019-05-23T08:44:45.630Z,7.90
2019-05-23T08:47:15.396Z,7.97
2019-05-23T08:49:46.310Z,9.73
2019-05-23T08:52:16.005Z,8.13
2019-05-23T08:54:46.298Z,9.20
2019-05-23T08:57:17.846Z,6.93
2019-05-23T08:59:47.618Z,10.00
2019-05-23T09:02:17.956Z,10.13
2019-05-23T09:05:03.392Z,10.23
2019-05-23T09:07:22.216Z,10.30
2019-05-23T09:09:52.376Z,9.53
2019-05-23T09:12:22.479Z,10.80
2019-05-23T09:14:52.925Z,11.57
2019-05-23T09:17:24.127Z,15.10
2019-05-23T09:19:53.880Z,12.13
2019-05-23T09:22:25.081Z,10.10
2019-05-23T09:24:55.039Z,10.97
2019-05-23T09:27:24.644Z,12.47
2019-05-23T09:29:54.212Z,12.57
2019-05-23T09:32:24.167Z,9.80
2019-05-23T09:34:53.834Z,9.30
2019-05-23T09:37:23.683Z,18.50
2019-05-23T09:39:54.243Z,8.67
2019-05-23T09:42:23.865Z,9.53
2019-05-23T09:44:53.697Z,9.87
2019-05-23T09:47:23.653Z,7.97
2019-05-23T09:49:54.514Z,8.83
2019-05-23T09:52:25.244Z,8.10
2019-05-23T09:54:58.848Z,8.27
2019-05-23T09:57:29.088Z,5.70
2019-05-23T09:59:59.060Z,8.60
2019-05-23T10:02:30.114Z,6.83
2019-05-23T10:05:00.013Z,5.67
2019-05-23T10:07:29.659Z,4.63
2019-05-23T10:10:00.119Z,7.50
2019-05-23T10:12:30.280Z,5.60
2019-05-23T10:15:00.068Z,6.27
2019-05-23T10:17:29.977Z,7.87
2019-05-23T10:19:59.870Z,6.30
2019-05-23T10:22:29.407Z,7.50
2019-05-23T10:25:01.407Z,7.50
2019-05-23T10:27:30.935Z,7.13
2019-05-23T10:30:00.695Z,9.67
2019-05-23T10:32:30.534Z,5.07
2019-05-23T10:35:00.239Z,5.97
2019-05-23T10:37:30.119Z,6.20
2019-05-23T10:40:00.035Z,6.80
2019-05-23T10:42:29.698Z,6.33
2019-05-23T10:45:00.524Z,6.43
2019-05-23T10:47:32.120Z,4.93
2019-05-23T10:50:07.663Z,5.23
2019-05-23T10:52:35.137Z,6.90
2019-05-23T10:55:06.389Z,5.03
2019-05-23T10:57:36.018Z,6.27
2019-05-23T11:00:08.116Z,7.47
2019-05-23T11:02:39.487Z,5.07
2019-05-23T11:05:13.406Z,6.87
2019-05-23T11:07:43.848Z,5.63
2019-05-23T11:10:17.031Z,7.03
2019-05-23T11:12:47.208Z,5.63
2019-05-23T11:15:18.173Z,5.50
2019-05-23T11:17:53.027Z,7.73
2019-05-23T11:20:21.955Z,7.60
2019-05-23T11:22:53.351Z,7.13
2019-05-23T11:25:24.002Z,7.67
2019-05-23T11:27:55.341Z,6.97
2019-05-23T11:30:27.159Z,5.70
2019-05-23T11:32:57.738Z,6.20
2019-05-23T11:35:27.864Z,5.37
2019-05-23T11:37:59.197Z,5.20
2019-05-23T11:40:28.761Z,5.97
2019-05-23T11:43:00.269Z,8.53
2019-05-23T11:45:31.630Z,8.23
2019-05-23T11:48:01.216Z,5.53
2019-05-23T11:50:30.981Z,5.63
2019-05-23T11:53:02.021Z,5.47
2019-05-23T11:55:31.590Z,5.67
2019-05-23T11:58:01.211Z,4.40
2019-05-23T12:00:47.885Z,5.77
2019-05-23T12:03:18.804Z,4.03
2019-05-23T12:05:49.302Z,5.73
2019-05-23T12:08:22.395Z,6.33
2019-05-23T12:10:52.822Z,6.23
2019-05-23T12:13:22.511Z,6.33
2019-05-23T12:15:52.792Z,5.77
2019-05-23T12:18:22.647Z,6.33
2019-05-23T12:20:52.536Z,7.57
2019-05-23T12:23:23.489Z,7.47
2019-05-23T12:25:53.696Z,5.90
2019-05-23T12:28:25.946Z,5.47
2019-05-23T12:30:56.141Z,9.00
2019-05-23T12:33:25.787Z,6.37
2019-05-23T12:35:55.430Z,9.10
2019-05-23T12:38:25.457Z,7.50
2019-05-23T12:40:55.007Z,5.10
2019-05-23T12:43:24.873Z,4.77
2019-05-23T12:45:54.452Z,7.13
2019-05-23T12:48:26.773Z,4.93
2019-05-23T12:51:10.107Z,6.20
2019-05-23T12:53:39.641Z,6.63
2019-05-23T12:56:10.393Z,5.77
2019-05-23T12:58:41.680Z,7.83
2019-05-23T13:01:14.116Z,7.43
2019-05-23T13:03:44.883Z,6.70
2019-05-23T13:06:14.709Z,6.80
2019-05-23T13:08:44.257Z,6.10
2019-05-23T13:11:14.003Z,8.03
2019-05-23T13:13:43.968Z,7.73
2019-05-23T13:16:13.697Z,6.63
2019-05-23T13:18:43.276Z,10.87
2019-05-23T13:21:14.890Z,9.20
2019-05-23T13:23:45.054Z,9.20
2019-05-23T13:26:15.000Z,9.80
2019-05-23T13:28:44.719Z,10.27
2019-05-23T13:31:14.338Z,7.90
2019-05-23T13:33:44.096Z,8.57
2019-05-23T13:36:13.715Z,8.87
2019-05-23T13:38:43.626Z,7.47
2019-05-23T13:41:13.687Z,9.83
2019-05-23T13:43:43.681Z,8.63
2019-05-23T13:46:14.030Z,9.70
2019-05-23T13:48:43.999Z,8.90
2019-05-23T13:51:13.862Z,7.23
2019-05-23T13:53:43.487Z,8.80
2019-05-23T13:56:14.972Z,7.97
2019-05-23T13:58:45.369Z,7.10
2019-05-23T14:01:15.582Z,8.97
2019-05-23T14:03:45.161Z,8.83
2019-05-23T14:06:14.853Z,13.37
2019-05-23T14:08:44.644Z,8.33
2019-05-23T14:11:15.278Z,6.73
2019-05-23T14:13:46.047Z,6.43
2019-05-23T14:16:15.978Z,6.97
2019-05-23T14:18:45.711Z,13.70
2019-05-23T14:21:15.502Z,7.37
2019-05-23T14:23:45.232Z,7.43
2019-05-23T14:26:16.420Z,6.10
2019-05-23T14:28:46.204Z,6.57
2019-05-23T14:31:17.386Z,7.40
2019-05-23T14:33:48.797Z,8.20
2019-05-23T14:36:36.680Z,8.40
2019-05-23T14:39:10.565Z,8.27
2019-05-23T14:41:51.644Z,7.03
2019-05-23T14:44:21.781Z,8.30
2019-05-23T14:46:55.417Z,11.87
2019-05-23T14:49:27.315Z,7.10
2019-05-23T14:52:01.021Z,6.93
2019-05-23T14:54:32.566Z,6.77
2019-05-23T14:57:02.112Z,12.40
2019-05-23T14:59:32.124Z,8.27
2019-05-23T15:02:02.668Z,7.80
2019-05-23T15:04:32.447Z,9.87
2019-05-23T15:07:02.243Z,5.57
2019-05-23T15:09:33.748Z,5.73
2019-05-23T15:12:03.651Z,5.10
2019-05-23T15:14:33.282Z,4.97
2019-05-23T15:17:04.591Z,4.63
2019-05-23T15:19:42.051Z,4.93
2019-05-23T15:22:05.746Z,5.03
2019-05-23T15:24:35.505Z,4.23
2019-05-23T15:27:05.548Z,5.10
2019-05-23T15:29:35.236Z,3.27
2019-05-23T15:32:05.855Z,5.07
2019-05-23T15:34:35.667Z,4.80
2019-05-23T15:37:05.433Z,3.10
2019-05-23T15:39:35.859Z,4.30
2019-05-23T15:42:05.877Z,4.90
2019-05-23T15:44:35.879Z,5.10
2019-05-23T15:47:06.165Z,3.47
2019-05-23T15:49:36.319Z,4.80
2019-05-23T15:52:24.008Z,4.97
2019-05-23T15:55:10.973Z,6.20
2019-05-23T15:57:42.275Z,3.80
2019-05-23T16:00:12.251Z,4.83
2019-05-23T16:02:46.893Z,2.90
2019-05-23T16:05:21.649Z,4.53
2019-05-23T16:07:53.402Z,4.60
2019-05-23T16:10:24.830Z,2.10
2019-05-23T16:12:54.360Z,1.77
2019-05-23T16:15:24.604Z,3.80
2019-05-23T16:17:54.222Z,3.20
2019-05-23T16:20:24.521Z,1.43
2019-05-23T16:22:54.138Z,2.23
2019-05-23T16:25:24.345Z,2.33
2019-05-23T16:27:56.155Z,3.47
2019-05-23T16:30:25.927Z,3.83
2019-05-23T16:32:55.641Z,2.50
2019-05-23T16:35:25.655Z,7.00
2019-05-23T16:37:55.352Z,2.20
2019-05-23T16:40:25.350Z,2.93
2019-05-23T16:42:57.006Z,5.03
2019-05-23T16:45:26.685Z,3.58
2019-05-23T16:47:56.445Z,4.07
2019-05-23T16:50:26.102Z,2.13
2019-05-23T16:52:57.642Z,2.92
2019-05-23T16:55:34.909Z,2.90
2019-05-23T16:58:18.462Z,4.03
2019-05-23T17:01:06.324Z,3.60
2019-05-23T17:03:38.073Z,2.87
2019-05-23T17:06:09.327Z,2.73
2019-05-23T17:08:50.958Z,2.00
2019-05-23T17:11:32.368Z,4.07
2019-05-23T17:14:06.355Z,3.17
2019-05-23T17:16:40.245Z,2.60
2019-05-23T17:19:10.928Z,2.23
2019-05-23T17:21:46.609Z,2.03
2019-05-23T17:24:18.631Z,2.17
2019-05-23T17:27:00.313Z,2.30
2019-05-23T17:29:40.654Z,5.43
2019-05-23T17:32:12.189Z,1.83
2019-05-23T17:34:41.981Z,1.80
2019-05-23T17:37:12.486Z,1.90
2019-05-23T17:39:43.907Z,1.77
2019-05-23T17:42:13.940Z,1.83
2019-05-23T17:44:44.891Z,2.47
2019-05-23T17:47:14.889Z,6.13
2019-05-23T17:49:45.148Z,7.03
2019-05-23T17:52:16.279Z,1.87
2019-05-23T17:54:47.891Z,2.47
2019-05-23T17:57:17.689Z,3.97
2019-05-23T17:59:49.191Z,4.27
2019-05-23T18:02:19.251Z,6.97
2019-05-23T18:04:48.994Z,2.37
2019-05-23T18:07:18.611Z,3.67
2019-05-23T18:09:48.995Z,2.53
2019-05-23T18:12:22.216Z,2.93
2019-05-23T18:14:53.158Z,2.90
2019-05-23T18:17:22.746Z,3.10
2019-05-23T18:19:52.765Z,2.13
2019-05-23T18:22:22.525Z,2.83
2019-05-23T18:24:52.537Z,3.23
2019-05-23T18:27:24.419Z,3.70
2019-05-23T18:29:55.784Z,2.20
2019-05-23T18:32:27.326Z,4.13
2019-05-23T18:34:57.723Z,2.37
2019-05-23T18:37:27.564Z,3.47
2019-05-23T18:39:57.206Z,5.13
2019-05-23T18:42:26.905Z,4.50
2019-05-23T18:44:56.718Z,2.30
2019-05-23T18:47:27.928Z,2.53
2019-05-23T18:49:58.721Z,2.20
2019-05-23T18:52:29.465Z,1.90
2019-05-23T18:54:59.075Z,2.67
2019-05-23T18:57:29.143Z,2.60
2019-05-23T18:59:59.212Z,2.80
2019-05-23T19:02:29.240Z,2.27
2019-05-23T19:04:59.833Z,1.97
2019-05-23T19:07:29.511Z,1.90
2019-05-23T19:09:59.357Z,2.57
2019-05-23T19:12:29.323Z,4.83
2019-05-23T19:15:00.258Z,2.10
2019-05-23T19:17:30.879Z,3.13
2019-05-23T19:20:00.449Z,2.73
2019-05-23T19:22:30.228Z,4.40
2019-05-23T19:25:00.181Z,4.37
2019-05-23T19:27:31.028Z,2.97
2019-05-23T19:30:00.722Z,3.60
2019-05-23T19:32:30.879Z,3.30
2019-05-23T19:35:01.496Z,4.60
2019-05-23T19:37:31.261Z,4.03
2019-05-23T19:40:02.556Z,2.80
2019-05-23T19:42:32.761Z,3.03
2019-05-23T19:45:03.025Z,5.83
2019-05-23T19:47:32.641Z,3.57
2019-05-23T19:50:02.244Z,4.70
2019-05-23T19:52:32.284Z,6.53
2019-05-23T19:55:02.451Z,4.57
2019-05-23T19:57:32.204Z,4.47
2019-05-23T20:00:02.533Z,8.63
2019-05-23T20:02:39.996Z,7.23
2019-05-23T20:05:13.444Z,5.83
2019-05-23T20:07:43.460Z,7.60
2019-05-23T20:10:14.300Z,11.33
2019-05-23T20:12:43.935Z,7.00
2019-05-23T20:15:14.428Z,9.00
2019-05-23T20:17:44.104Z,9.83
2019-05-23T20:20:14.352Z,9.63
2019-05-23T20:22:44.076Z,7.87
2019-05-23T20:25:14.606Z,8.27
2019-05-23T20:27:44.337Z,7.03
2019-05-23T20:30:44.062Z,9.97
2019-05-23T20:33:13.999Z,10.27
2019-05-23T20:35:44.301Z,8.07
2019-05-23T20:38:14.178Z,9.37
2019-05-23T20:40:43.755Z,5.97
2019-05-23T20:43:15.741Z,6.13
2019-05-23T20:45:48.415Z,7.47
2019-05-23T20:48:21.139Z,7.30
2019-05-23T20:50:56.297Z,6.93
2019-05-23T20:53:30.123Z,8.60
2019-05-23T20:56:02.980Z,6.50
2019-05-23T20:58:32.820Z,6.13
2019-05-23T21:01:06.643Z,7.40
2019-05-23T21:07:37.053Z,7.90
2019-05-23T21:10:09.204Z,5.80
2019-05-23T21:12:39.011Z,6.33
2019-05-23T21:15:12.270Z,6.70
2019-05-23T21:17:42.072Z,5.43
2019-05-23T21:20:11.678Z,6.10
2019-05-23T21:22:41.227Z,5.10
2019-05-23T21:25:11.400Z,5.43
2019-05-23T21:27:41.121Z,5.83
2019-05-23T21:30:10.991Z,6.33
2019-05-23T21:32:40.862Z,5.83
2019-05-23T21:35:10.710Z,4.00
2019-05-23T21:37:40.436Z,6.57
2019-05-23T21:40:31.540Z,5.80
2019-05-23T21:43:01.190Z,6.27
2019-05-23T21:45:30.848Z,7.20
2019-05-23T21:48:00.368Z,5.90
2019-05-23T21:50:29.995Z,8.20
2019-05-23T21:52:59.641Z,5.17
2019-05-23T21:55:41.730Z,5.70
2019-05-23T21:58:13.509Z,7.37
2019-05-23T22:01:05.594Z,5.63
2019-05-23T22:03:52.260Z,4.40
2019-05-23T22:06:25.137Z,4.33
2019-05-23T22:08:54.881Z,5.27
2019-05-23T22:11:25.164Z,5.37
2019-05-23T22:13:54.730Z,5.67
2019-05-23T22:16:24.568Z,6.37
2019-05-23T22:18:54.138Z,4.70
2019-05-23T22:21:23.704Z,5.13
2019-05-23T22:23:53.788Z,6.43
2019-05-23T22:26:23.342Z,5.47
2019-05-23T22:28:52.987Z,5.30
2019-05-23T22:31:22.545Z,5.10
2019-05-23T22:34:02.901Z,4.13
2019-05-23T22:36:32.459Z,5.30
2019-05-23T22:39:02.463Z,4.20
2019-05-23T22:41:32.604Z,6.67
2019-05-23T22:44:02.231Z,6.43
2019-05-23T22:46:32.146Z,7.10
2019-05-23T22:49:01.675Z,6.20
2019-05-23T22:51:31.393Z,8.23
2019-05-23T22:54:00.934Z,7.37
2019-05-23T22:56:30.511Z,5.83
2019-05-23T22:59:00.044Z,5.40
2019-05-23T23:01:30.654Z,5.27
2019-05-23T23:04:00.529Z,4.40
2019-05-23T23:06:30.849Z,5.67
2019-05-23T23:09:01.419Z,5.10
2019-05-23T23:11:31.046Z,7.37
2019-05-23T23:14:00.600Z,7.10
2019-05-23T23:16:30.166Z,5.80
2019-05-23T23:18:59.907Z,4.20
2019-05-23T23:21:29.883Z,4.43
2019-05-23T23:23:59.475Z,5.73
2019-05-23T23:26:29.028Z,4.63
2019-05-23T23:28:58.769Z,6.60
2019-05-23T23:31:28.329Z,4.60
2019-05-23T23:33:58.451Z,7.07
2019-05-23T23:36:28.226Z,4.27
2019-05-23T23:38:57.782Z,6.90
2019-05-23T23:41:27.534Z,5.13
2019-05-23T23:43:59.660Z,5.33
2019-05-23T23:46:46.335Z,5.20
2019-05-23T23:49:33.572Z,4.30
2019-05-23T23:52:20.941Z,4.60
2019-05-23T23:55:08.569Z,5.23
2019-05-23T23:57:55.953Z,5.13
